sensor_id;sensor_type;location;lat;lon;timestamp;temperature;humidity
29501;DHT22;16450;50.288;10.966;2023-02-11T00:00:26;-2.90;99.70
29501;DHT22;16450;50.288;10.966;2023-02-11T00:03:28;-2.80;99.80
29501;DHT22;16450;50.288;10.966;2023-02-11T00:06:31;-2.80;99.90
29501;DHT22;16450;50.288;10.966;2023-02-11T00:09:33;-2.70;99.90
29501;DHT22;16450;50.288;10.966;2023-02-11T00:12:36;-2.70;99.90
29501;DHT22;16450;50.288;10.966;2023-02-11T00:15:37;-2.60;99.90
29501;DHT22;16450;50.288;10.966;2023-02-11T00:18:39;-2.60;99.90
29501;DHT22;16450;50.288;10.966;2023-02-11T00:21:41;-2.60;99.90
29501;DHT22;16450;50.288;10.966;2023-02-11T00:24:43;-2.50;99.90
29501;DHT22;16450;50.288;10.966;2023-02-11T00:27:45;-2.50;99.90
29501;DHT22;16450;50.288;10.966;2023-02-11T00:30:53;-2.50;99.70
29501;DHT22;16450;50.288;10.966;2023-02-11T00:33:56;-2.50;99.40
29501;DHT22;16450;50.288;10.966;2023-02-11T00:36:58;-2.50;99.40
29501;DHT22;16450;50.288;10.966;2023-02-11T00:39:59;-2.60;99.30
29501;DHT22;16450;50.288;10.966;2023-02-11T00:43:01;-2.60;99.40
29501;DHT22;16450;50.288;10.966;2023-02-11T00:46:03;-2.60;99.50
29501;DHT22;16450;50.288;10.966;2023-02-11T00:49:05;-2.60;99.50
29501;DHT22;16450;50.288;10.966;2023-02-11T00:52:07;-2.60;99.60
29501;DHT22;16450;50.288;10.966;2023-02-11T00:55:08;-2.60;99.60
29501;DHT22;16450;50.288;10.966;2023-02-11T00:58:10;-2.60;99.60
29501;DHT22;16450;50.288;10.966;2023-02-11T01:01:12;-2.60;99.70
29501;DHT22;16450;50.288;10.966;2023-02-11T01:04:14;-2.60;99.80
29501;DHT22;16450;50.288;10.966;2023-02-11T01:07:16;-2.60;99.90
29501;DHT22;16450;50.288;10.966;2023-02-11T01:10:18;-2.60;99.90
29501;DHT22;16450;50.288;10.966;2023-02-11T01:13:20;-2.50;99.90
29501;DHT22;16450;50.288;10.966;2023-02-11T01:16:22;-2.50;99.90
29501;DHT22;16450;50.288;10.966;2023-02-11T01:19:24;-2.50;99.90
29501;DHT22;16450;50.288;10.966;2023-02-11T01:22:25;-2.50;99.90
29501;DHT22;16450;50.288;10.966;2023-02-11T01:25:27;-2.40;99.90
29501;DHT22;16450;50.288;10.966;2023-02-11T01:28:29;-2.40;99.90
29501;DHT22;16450;50.288;10.966;2023-02-11T01:31:31;-2.40;99.90
29501;DHT22;16450;50.288;10.966;2023-02-11T01:34:33;-2.40;99.90
29501;DHT22;16450;50.288;10.966;2023-02-11T01:37:35;-2.40;99.90
29501;DHT22;16450;50.288;10.966;2023-02-11T01:40:37;-2.40;99.90
29501;DHT22;16450;50.288;10.966;2023-02-11T01:43:45;-2.40;99.90
29501;DHT22;16450;50.288;10.966;2023-02-11T01:46:48;-2.40;99.90
29501;DHT22;16450;50.288;10.966;2023-02-11T01:49:54;-2.40;99.90
29501;DHT22;16450;50.288;10.966;2023-02-11T01:52:57;-2.40;99.90
29501;DHT22;16450;50.288;10.966;2023-02-11T01:56:19;-2.40;99.90
29501;DHT22;16450;50.288;10.966;2023-02-11T01:59:53;-2.40;99.90
29501;DHT22;16450;50.288;10.966;2023-02-11T02:07:02;-2.40;99.90
29501;DHT22;16450;50.288;10.966;2023-02-11T02:10:13;-2.30;99.90
29501;DHT22;16450;50.288;10.966;2023-02-11T02:13:17;-2.40;99.90
29501;DHT22;16450;50.288;10.966;2023-02-11T02:16:20;-2.30;99.90
29501;DHT22;16450;50.288;10.966;2023-02-11T02:19:35;-2.30;99.90
29501;DHT22;16450;50.288;10.966;2023-02-11T02:22:58;-2.30;99.90
29501;DHT22;16450;50.288;10.966;2023-02-11T02:36:33;-2.10;99.90
29501;DHT22;16450;50.288;10.966;2023-02-11T02:39:37;-2.00;99.90
29501;DHT22;16450;50.288;10.966;2023-02-11T02:42:40;-2.00;99.90
29501;DHT22;16450;50.288;10.966;2023-02-11T02:45:42;-2.00;99.90
29501;DHT22;16450;50.288;10.966;2023-02-11T02:48:45;-1.90;99.90
29501;DHT22;16450;50.288;10.966;2023-02-11T02:52:04;-1.90;99.90
29501;DHT22;16450;50.288;10.966;2023-02-11T02:55:23;-1.90;99.90
29501;DHT22;16450;50.288;10.966;2023-02-11T03:02:32;-1.80;99.90
29501;DHT22;16450;50.288;10.966;2023-02-11T03:05:50;-1.80;99.90
29501;DHT22;16450;50.288;10.966;2023-02-11T03:09:05;-1.80;99.90
29501;DHT22;16450;50.288;10.966;2023-02-11T03:12:12;-1.80;99.90
29501;DHT22;16450;50.288;10.966;2023-02-11T03:15:16;-1.80;99.90
29501;DHT22;16450;50.288;10.966;2023-02-11T03:18:23;-1.70;99.90
29501;DHT22;16450;50.288;10.966;2023-02-11T03:21:27;-1.70;99.90
29501;DHT22;16450;50.288;10.966;2023-02-11T03:24:36;-1.70;99.90
29501;DHT22;16450;50.288;10.966;2023-02-11T03:27:51;-1.70;99.90
29501;DHT22;16450;50.288;10.966;2023-02-11T03:37:52;-1.70;99.90
29501;DHT22;16450;50.288;10.966;2023-02-11T03:40:57;-1.70;99.90
29501;DHT22;16450;50.288;10.966;2023-02-11T03:44:00;-1.80;99.90
29501;DHT22;16450;50.288;10.966;2023-02-11T03:47:04;-1.80;99.90
29501;DHT22;16450;50.288;10.966;2023-02-11T03:50:11;-1.80;99.90
29501;DHT22;16450;50.288;10.966;2023-02-11T03:53:14;-1.80;99.90
29501;DHT22;16450;50.288;10.966;2023-02-11T03:56:20;-1.80;99.90
29501;DHT22;16450;50.288;10.966;2023-02-11T03:59:24;-1.80;99.90
29501;DHT22;16450;50.288;10.966;2023-02-11T04:02:29;-1.80;99.90
29501;DHT22;16450;50.288;10.966;2023-02-11T04:05:32;-1.80;99.90
29501;DHT22;16450;50.288;10.966;2023-02-11T04:08:34;-1.80;99.90
29501;DHT22;16450;50.288;10.966;2023-02-11T04:11:36;-1.80;99.90
29501;DHT22;16450;50.288;10.966;2023-02-11T04:14:38;-1.80;99.90
29501;DHT22;16450;50.288;10.966;2023-02-11T04:17:39;-1.80;99.90
29501;DHT22;16450;50.288;10.966;2023-02-11T04:20:41;-1.80;99.90
29501;DHT22;16450;50.288;10.966;2023-02-11T04:23:43;-1.80;99.90
29501;DHT22;16450;50.288;10.966;2023-02-11T04:26:45;-1.80;99.90
29501;DHT22;16450;50.288;10.966;2023-02-11T04:29:47;-1.70;99.90
29501;DHT22;16450;50.288;10.966;2023-02-11T04:32:49;-1.70;99.90
29501;DHT22;16450;50.288;10.966;2023-02-11T04:35:51;-1.70;99.90
29501;DHT22;16450;50.288;10.966;2023-02-11T04:38:53;-1.70;99.90
29501;DHT22;16450;50.288;10.966;2023-02-11T04:41:55;-1.60;99.90
29501;DHT22;16450;50.288;10.966;2023-02-11T04:44:56;-1.60;99.90
29501;DHT22;16450;50.288;10.966;2023-02-11T04:47:58;-1.60;99.90
29501;DHT22;16450;50.288;10.966;2023-02-11T04:51:01;-1.60;99.90
29501;DHT22;16450;50.288;10.966;2023-02-11T04:54:03;-1.50;99.90
29501;DHT22;16450;50.288;10.966;2023-02-11T04:57:05;-1.50;99.90
29501;DHT22;16450;50.288;10.966;2023-02-11T05:00:08;-1.50;99.90
29501;DHT22;16450;50.288;10.966;2023-02-11T05:03:11;-1.50;99.90
29501;DHT22;16450;50.288;10.966;2023-02-11T05:06:12;-1.40;99.90
29501;DHT22;16450;50.288;10.966;2023-02-11T05:09:14;-1.40;99.90
29501;DHT22;16450;50.288;10.966;2023-02-11T05:12:17;-1.40;99.90
29501;DHT22;16450;50.288;10.966;2023-02-11T05:15:19;-1.40;99.90
29501;DHT22;16450;50.288;10.966;2023-02-11T05:18:20;-1.30;99.90
29501;DHT22;16450;50.288;10.966;2023-02-11T05:21:22;-1.40;99.90
29501;DHT22;16450;50.288;10.966;2023-02-11T05:24:24;-1.40;99.90
29501;DHT22;16450;50.288;10.966;2023-02-11T05:27:26;-1.40;99.90
29501;DHT22;16450;50.288;10.966;2023-02-11T05:30:28;-1.40;99.90
29501;DHT22;16450;50.288;10.966;2023-02-11T05:33:30;-1.40;99.90
29501;DHT22;16450;50.288;10.966;2023-02-11T05:36:32;-1.40;99.90
29501;DHT22;16450;50.288;10.966;2023-02-11T05:39:34;-1.30;99.90
29501;DHT22;16450;50.288;10.966;2023-02-11T05:42:35;-1.30;99.90
29501;DHT22;16450;50.288;10.966;2023-02-11T05:45:37;-1.30;99.90
29501;DHT22;16450;50.288;10.966;2023-02-11T05:48:39;-1.30;99.90
29501;DHT22;16450;50.288;10.966;2023-02-11T05:51:41;-1.30;99.90
29501;DHT22;16450;50.288;10.966;2023-02-11T05:54:42;-1.30;99.90
29501;DHT22;16450;50.288;10.966;2023-02-11T05:57:44;-1.30;99.90
29501;DHT22;16450;50.288;10.966;2023-02-11T06:00:46;-1.30;99.90
29501;DHT22;16450;50.288;10.966;2023-02-11T06:03:48;-1.30;99.90
29501;DHT22;16450;50.288;10.966;2023-02-11T06:06:52;-1.30;99.90
29501;DHT22;16450;50.288;10.966;2023-02-11T06:09:53;-1.30;99.90
29501;DHT22;16450;50.288;10.966;2023-02-11T06:12:55;-1.30;99.90
29501;DHT22;16450;50.288;10.966;2023-02-11T06:15:58;-1.20;99.90
29501;DHT22;16450;50.288;10.966;2023-02-11T06:19:00;-1.20;99.90
29501;DHT22;16450;50.288;10.966;2023-02-11T06:22:02;-1.20;99.90
29501;DHT22;16450;50.288;10.966;2023-02-11T06:25:04;-1.20;99.90
29501;DHT22;16450;50.288;10.966;2023-02-11T06:28:06;-1.20;99.90
29501;DHT22;16450;50.288;10.966;2023-02-11T06:31:09;-1.20;99.90
29501;DHT22;16450;50.288;10.966;2023-02-11T06:34:12;-1.10;99.90
29501;DHT22;16450;50.288;10.966;2023-02-11T06:37:14;-1.10;99.90
29501;DHT22;16450;50.288;10.966;2023-02-11T06:40:16;-1.10;99.90
29501;DHT22;16450;50.288;10.966;2023-02-11T06:43:18;-1.10;99.90
29501;DHT22;16450;50.288;10.966;2023-02-11T06:46:22;-1.10;99.90
29501;DHT22;16450;50.288;10.966;2023-02-11T06:49:24;-1.00;99.90
29501;DHT22;16450;50.288;10.966;2023-02-11T06:52:26;-1.00;99.90
29501;DHT22;16450;50.288;10.966;2023-02-11T06:55:28;-1.00;99.90
29501;DHT22;16450;50.288;10.966;2023-02-11T06:58:29;-1.00;99.90
29501;DHT22;16450;50.288;10.966;2023-02-11T07:01:31;-1.00;99.90
29501;DHT22;16450;50.288;10.966;2023-02-11T07:04:33;-1.00;99.90
29501;DHT22;16450;50.288;10.966;2023-02-11T07:07:35;-1.00;99.90
29501;DHT22;16450;50.288;10.966;2023-02-11T07:10:37;-0.90;99.90
29501;DHT22;16450;50.288;10.966;2023-02-11T07:13:40;-0.90;99.90
29501;DHT22;16450;50.288;10.966;2023-02-11T07:16:42;-0.90;99.90
29501;DHT22;16450;50.288;10.966;2023-02-11T07:19:46;-0.90;99.90
29501;DHT22;16450;50.288;10.966;2023-02-11T07:22:47;-0.80;99.90
29501;DHT22;16450;50.288;10.966;2023-02-11T07:25:49;-0.80;99.90
29501;DHT22;16450;50.288;10.966;2023-02-11T07:28:52;-0.80;99.90
29501;DHT22;16450;50.288;10.966;2023-02-11T07:31:54;-0.70;99.90
29501;DHT22;16450;50.288;10.966;2023-02-11T07:34:55;-0.70;99.90
29501;DHT22;16450;50.288;10.966;2023-02-11T07:37:59;-0.70;99.90
29501;DHT22;16450;50.288;10.966;2023-02-11T07:41:03;-0.60;99.90
29501;DHT22;16450;50.288;10.966;2023-02-11T07:44:08;-0.60;99.90
29501;DHT22;16450;50.288;10.966;2023-02-11T07:47:10;-0.50;99.90
29501;DHT22;16450;50.288;10.966;2023-02-11T07:50:12;-0.50;99.90
29501;DHT22;16450;50.288;10.966;2023-02-11T07:53:14;-0.40;99.90
29501;DHT22;16450;50.288;10.966;2023-02-11T07:56:17;-0.40;99.90
29501;DHT22;16450;50.288;10.966;2023-02-11T07:59:19;-0.40;99.90
29501;DHT22;16450;50.288;10.966;2023-02-11T08:02:21;-0.30;99.90
29501;DHT22;16450;50.288;10.966;2023-02-11T08:05:23;-0.30;99.90
29501;DHT22;16450;50.288;10.966;2023-02-11T08:08:25;-0.20;99.90
29501;DHT22;16450;50.288;10.966;2023-02-11T08:11:28;-0.20;99.90
29501;DHT22;16450;50.288;10.966;2023-02-11T08:14:30;-0.10;99.90
29501;DHT22;16450;50.288;10.966;2023-02-11T08:17:34;-0.10;99.90
29501;DHT22;16450;50.288;10.966;2023-02-11T08:20:36;0.00;99.90
29501;DHT22;16450;50.288;10.966;2023-02-11T08:23:39;0.00;99.90
29501;DHT22;16450;50.288;10.966;2023-02-11T08:26:42;0.10;99.90
29501;DHT22;16450;50.288;10.966;2023-02-11T08:29:44;0.20;99.90
29501;DHT22;16450;50.288;10.966;2023-02-11T08:32:45;0.30;99.90
29501;DHT22;16450;50.288;10.966;2023-02-11T08:35:47;0.40;99.90
29501;DHT22;16450;50.288;10.966;2023-02-11T08:38:49;0.40;99.90
29501;DHT22;16450;50.288;10.966;2023-02-11T08:41:53;0.50;99.90
29501;DHT22;16450;50.288;10.966;2023-02-11T08:44:56;0.50;99.90
29501;DHT22;16450;50.288;10.966;2023-02-11T08:47:58;0.60;99.90
29501;DHT22;16450;50.288;10.966;2023-02-11T08:51:08;0.70;99.90
29501;DHT22;16450;50.288;10.966;2023-02-11T08:54:11;0.70;99.90
29501;DHT22;16450;50.288;10.966;2023-02-11T08:57:13;0.70;99.90
29501;DHT22;16450;50.288;10.966;2023-02-11T09:00:15;0.70;99.90
29501;DHT22;16450;50.288;10.966;2023-02-11T09:03:17;0.80;99.90
29501;DHT22;16450;50.288;10.966;2023-02-11T09:06:19;0.80;99.90
29501;DHT22;16450;50.288;10.966;2023-02-11T09:09:22;0.90;99.90
29501;DHT22;16450;50.288;10.966;2023-02-11T09:12:24;0.90;99.90
29501;DHT22;16450;50.288;10.966;2023-02-11T09:15:26;0.90;99.90
29501;DHT22;16450;50.288;10.966;2023-02-11T09:18:29;1.00;99.90
29501;DHT22;16450;50.288;10.966;2023-02-11T09:21:31;1.00;99.90
29501;DHT22;16450;50.288;10.966;2023-02-11T09:24:33;1.00;99.90
29501;DHT22;16450;50.288;10.966;2023-02-11T09:27:34;1.00;99.90
29501;DHT22;16450;50.288;10.966;2023-02-11T09:30:37;1.00;99.90
29501;DHT22;16450;50.288;10.966;2023-02-11T09:33:40;1.10;99.90
29501;DHT22;16450;50.288;10.966;2023-02-11T09:36:48;1.10;99.90
29501;DHT22;16450;50.288;10.966;2023-02-11T09:39:49;1.20;99.90
29501;DHT22;16450;50.288;10.966;2023-02-11T09:43:08;1.20;99.90
29501;DHT22;16450;50.288;10.966;2023-02-11T09:46:14;1.30;99.90
29501;DHT22;16450;50.288;10.966;2023-02-11T09:49:21;1.30;99.90
29501;DHT22;16450;50.288;10.966;2023-02-11T09:55:55;1.40;99.90
29501;DHT22;16450;50.288;10.966;2023-02-11T09:58:57;1.40;99.90
29501;DHT22;16450;50.288;10.966;2023-02-11T10:02:11;1.40;99.90
29501;DHT22;16450;50.288;10.966;2023-02-11T10:09:19;1.40;99.90
29501;DHT22;16450;50.288;10.966;2023-02-11T10:15:47;1.40;99.90
29501;DHT22;16450;50.288;10.966;2023-02-11T10:19:05;1.40;99.90
29501;DHT22;16450;50.288;10.966;2023-02-11T10:25:48;1.40;99.90
29501;DHT22;16450;50.288;10.966;2023-02-11T10:28:53;1.50;99.90
29501;DHT22;16450;50.288;10.966;2023-02-11T10:31:56;1.50;99.90
29501;DHT22;16450;50.288;10.966;2023-02-11T10:35:02;1.50;99.90
29501;DHT22;16450;50.288;10.966;2023-02-11T10:38:04;1.50;99.90
29501;DHT22;16450;50.288;10.966;2023-02-11T10:41:12;1.50;99.90
29501;DHT22;16450;50.288;10.966;2023-02-11T10:44:38;1.50;99.90
29501;DHT22;16450;50.288;10.966;2023-02-11T10:47:40;1.50;99.90
29501;DHT22;16450;50.288;10.966;2023-02-11T10:50:43;1.60;99.90
29501;DHT22;16450;50.288;10.966;2023-02-11T10:53:47;1.60;99.90
29501;DHT22;16450;50.288;10.966;2023-02-11T10:56:58;1.60;99.90
29501;DHT22;16450;50.288;10.966;2023-02-11T11:00:05;1.60;99.90
29501;DHT22;16450;50.288;10.966;2023-02-11T11:03:35;1.60;99.90
29501;DHT22;16450;50.288;10.966;2023-02-11T11:06:38;1.60;99.90
29501;DHT22;16450;50.288;10.966;2023-02-11T11:12:50;1.60;99.90
29501;DHT22;16450;50.288;10.966;2023-02-11T11:19:20;1.60;99.90
29501;DHT22;16450;50.288;10.966;2023-02-11T11:22:23;1.60;99.90
29501;DHT22;16450;50.288;10.966;2023-02-11T11:25:26;1.60;99.90
29501;DHT22;16450;50.288;10.966;2023-02-11T11:28:35;1.50;99.90
29501;DHT22;16450;50.288;10.966;2023-02-11T11:31:54;1.50;99.90
29501;DHT22;16450;50.288;10.966;2023-02-11T11:35:00;1.50;99.90
29501;DHT22;16450;50.288;10.966;2023-02-11T11:38:04;1.50;99.90
29501;DHT22;16450;50.288;10.966;2023-02-11T11:41:22;1.50;99.90
29501;DHT22;16450;50.288;10.966;2023-02-11T11:47:38;1.50;99.90
29501;DHT22;16450;50.288;10.966;2023-02-11T11:50:46;1.50;99.90
29501;DHT22;16450;50.288;10.966;2023-02-11T11:54:11;1.50;99.90
29501;DHT22;16450;50.288;10.966;2023-02-11T11:57:19;1.50;99.90
29501;DHT22;16450;50.288;10.966;2023-02-11T12:00:35;1.50;99.90
29501;DHT22;16450;50.288;10.966;2023-02-11T12:07:22;1.50;99.90
29501;DHT22;16450;50.288;10.966;2023-02-11T12:27:38;1.60;99.90
29501;DHT22;16450;50.288;10.966;2023-02-11T12:31:01;1.60;99.90
29501;DHT22;16450;50.288;10.966;2023-02-11T12:37:33;1.70;99.90
29501;DHT22;16450;50.288;10.966;2023-02-11T12:41:03;1.70;99.90
29501;DHT22;16450;50.288;10.966;2023-02-11T12:44:24;1.70;99.90
29501;DHT22;16450;50.288;10.966;2023-02-11T12:48:04;1.80;99.90
29501;DHT22;16450;50.288;10.966;2023-02-11T12:54:25;1.80;99.90
29501;DHT22;16450;50.288;10.966;2023-02-11T12:57:30;1.80;99.90
29501;DHT22;16450;50.288;10.966;2023-02-11T13:00:46;1.80;99.90
29501;DHT22;16450;50.288;10.966;2023-02-11T13:04:03;1.80;99.90
29501;DHT22;16450;50.288;10.966;2023-02-11T13:07:16;1.80;99.90
29501;DHT22;16450;50.288;10.966;2023-02-11T13:13:32;1.90;99.90
29501;DHT22;16450;50.288;10.966;2023-02-11T13:16:41;1.90;99.90
29501;DHT22;16450;50.288;10.966;2023-02-11T13:19:51;1.90;99.90
29501;DHT22;16450;50.288;10.966;2023-02-11T13:26:54;1.90;99.90
29501;DHT22;16450;50.288;10.966;2023-02-11T13:30:19;1.90;99.90
29501;DHT22;16450;50.288;10.966;2023-02-11T13:33:36;2.00;99.90
29501;DHT22;16450;50.288;10.966;2023-02-11T13:36:40;2.00;99.90
29501;DHT22;16450;50.288;10.966;2023-02-11T13:39:41;2.00;99.90
29501;DHT22;16450;50.288;10.966;2023-02-11T13:46:04;2.10;99.90
29501;DHT22;16450;50.288;10.966;2023-02-11T13:49:24;2.10;99.90
29501;DHT22;16450;50.288;10.966;2023-02-11T13:52:30;2.10;99.90
29501;DHT22;16450;50.288;10.966;2023-02-11T13:55:32;2.20;99.90
29501;DHT22;16450;50.288;10.966;2023-02-11T13:58:45;2.20;99.90
29501;DHT22;16450;50.288;10.966;2023-02-11T14:12:30;2.30;99.90
29501;DHT22;16450;50.288;10.966;2023-02-11T14:15:39;2.30;99.90
29501;DHT22;16450;50.288;10.966;2023-02-11T14:21:50;2.40;99.90
29501;DHT22;16450;50.288;10.966;2023-02-11T14:24:54;2.40;99.90
29501;DHT22;16450;50.288;10.966;2023-02-11T14:28:14;2.40;99.90
29501;DHT22;16450;50.288;10.966;2023-02-11T14:31:32;2.50;99.90
29501;DHT22;16450;50.288;10.966;2023-02-11T14:42:17;2.60;99.90
29501;DHT22;16450;50.288;10.966;2023-02-11T14:45:26;2.60;99.90
29501;DHT22;16450;50.288;10.966;2023-02-11T14:48:32;2.60;99.90
29501;DHT22;16450;50.288;10.966;2023-02-11T14:51:38;2.70;99.90
29501;DHT22;16450;50.288;10.966;2023-02-11T14:54:41;2.70;99.90
29501;DHT22;16450;50.288;10.966;2023-02-11T14:57:44;2.70;99.90
29501;DHT22;16450;50.288;10.966;2023-02-11T15:01:02;2.70;99.90
29501;DHT22;16450;50.288;10.966;2023-02-11T15:04:26;2.70;99.90
29501;DHT22;16450;50.288;10.966;2023-02-11T15:07:28;2.70;99.90
29501;DHT22;16450;50.288;10.966;2023-02-11T15:10:43;2.70;99.90
29501;DHT22;16450;50.288;10.966;2023-02-11T15:13:45;2.70;99.90
29501;DHT22;16450;50.288;10.966;2023-02-11T15:16:52;2.70;99.90
29501;DHT22;16450;50.288;10.966;2023-02-11T15:19:56;2.70;99.90
29501;DHT22;16450;50.288;10.966;2023-02-11T15:23:02;2.70;99.90
29501;DHT22;16450;50.288;10.966;2023-02-11T15:26:13;2.80;99.90
29501;DHT22;16450;50.288;10.966;2023-02-11T15:29:16;2.70;99.90
29501;DHT22;16450;50.288;10.966;2023-02-11T15:32:24;2.70;99.90
29501;DHT22;16450;50.288;10.966;2023-02-11T15:35:36;2.70;99.90
29501;DHT22;16450;50.288;10.966;2023-02-11T15:38:38;2.70;99.90
29501;DHT22;16450;50.288;10.966;2023-02-11T15:41:41;2.70;99.90
29501;DHT22;16450;50.288;10.966;2023-02-11T15:44:45;2.70;99.90
29501;DHT22;16450;50.288;10.966;2023-02-11T15:48:20;2.70;99.90
29501;DHT22;16450;50.288;10.966;2023-02-11T15:51:29;2.60;99.90
29501;DHT22;16450;50.288;10.966;2023-02-11T15:54:32;2.60;99.90
29501;DHT22;16450;50.288;10.966;2023-02-11T15:57:34;2.60;99.90
29501;DHT22;16450;50.288;10.966;2023-02-11T16:00:44;2.60;99.90
29501;DHT22;16450;50.288;10.966;2023-02-11T16:03:49;2.60;99.90
29501;DHT22;16450;50.288;10.966;2023-02-11T16:06:53;2.50;99.90
29501;DHT22;16450;50.288;10.966;2023-02-11T16:09:57;2.50;99.90
29501;DHT22;16450;50.288;10.966;2023-02-11T16:16:14;2.40;99.90
29501;DHT22;16450;50.288;10.966;2023-02-11T16:19:19;2.50;99.90
29501;DHT22;16450;50.288;10.966;2023-02-11T16:22:27;2.40;99.90
29501;DHT22;16450;50.288;10.966;2023-02-11T16:25:31;2.40;99.90
29501;DHT22;16450;50.288;10.966;2023-02-11T16:28:35;2.40;99.90
29501;DHT22;16450;50.288;10.966;2023-02-11T16:31:43;2.40;99.90
29501;DHT22;16450;50.288;10.966;2023-02-11T16:34:46;2.40;99.90
29501;DHT22;16450;50.288;10.966;2023-02-11T16:37:48;2.30;99.90
29501;DHT22;16450;50.288;10.966;2023-02-11T16:40:49;2.30;99.90
29501;DHT22;16450;50.288;10.966;2023-02-11T16:43:56;2.30;99.90
29501;DHT22;16450;50.288;10.966;2023-02-11T16:46:59;2.30;99.90
29501;DHT22;16450;50.288;10.966;2023-02-11T16:50:02;2.30;99.90
29501;DHT22;16450;50.288;10.966;2023-02-11T16:53:05;2.40;99.90
29501;DHT22;16450;50.288;10.966;2023-02-11T16:56:12;2.30;99.90
29501;DHT22;16450;50.288;10.966;2023-02-11T16:59:14;2.30;99.90
29501;DHT22;16450;50.288;10.966;2023-02-11T17:02:24;2.30;99.90
29501;DHT22;16450;50.288;10.966;2023-02-11T17:05:26;2.30;99.90
29501;DHT22;16450;50.288;10.966;2023-02-11T17:08:28;2.30;99.90
29501;DHT22;16450;50.288;10.966;2023-02-11T17:11:30;2.20;99.90
29501;DHT22;16450;50.288;10.966;2023-02-11T17:14:32;2.20;99.90
29501;DHT22;16450;50.288;10.966;2023-02-11T17:17:34;2.20;99.90
29501;DHT22;16450;50.288;10.966;2023-02-11T17:20:35;2.20;99.90
29501;DHT22;16450;50.288;10.966;2023-02-11T17:23:37;2.20;99.90
29501;DHT22;16450;50.288;10.966;2023-02-11T17:26:40;2.20;99.90
29501;DHT22;16450;50.288;10.966;2023-02-11T17:29:42;2.20;99.90
29501;DHT22;16450;50.288;10.966;2023-02-11T17:32:44;2.20;99.90
29501;DHT22;16450;50.288;10.966;2023-02-11T17:35:47;2.20;99.90
29501;DHT22;16450;50.288;10.966;2023-02-11T17:38:49;2.20;99.90
29501;DHT22;16450;50.288;10.966;2023-02-11T17:41:52;2.20;99.90
29501;DHT22;16450;50.288;10.966;2023-02-11T17:44:54;2.20;99.90
29501;DHT22;16450;50.288;10.966;2023-02-11T17:47:55;2.20;99.90
29501;DHT22;16450;50.288;10.966;2023-02-11T17:50:57;2.10;99.90
29501;DHT22;16450;50.288;10.966;2023-02-11T17:54:01;2.10;99.90
29501;DHT22;16450;50.288;10.966;2023-02-11T17:57:03;2.10;99.90
29501;DHT22;16450;50.288;10.966;2023-02-11T18:00:06;2.10;99.90
29501;DHT22;16450;50.288;10.966;2023-02-11T18:03:08;2.10;99.90
29501;DHT22;16450;50.288;10.966;2023-02-11T18:06:10;2.10;99.90
29501;DHT22;16450;50.288;10.966;2023-02-11T18:09:12;2.10;99.90
29501;DHT22;16450;50.288;10.966;2023-02-11T18:12:14;2.10;99.90
29501;DHT22;16450;50.288;10.966;2023-02-11T18:15:18;2.10;99.90
29501;DHT22;16450;50.288;10.966;2023-02-11T18:18:20;2.10;99.90
29501;DHT22;16450;50.288;10.966;2023-02-11T18:21:22;2.10;99.90
29501;DHT22;16450;50.288;10.966;2023-02-11T18:24:25;2.10;99.90
29501;DHT22;16450;50.288;10.966;2023-02-11T18:27:27;2.10;99.90
29501;DHT22;16450;50.288;10.966;2023-02-11T18:30:29;2.10;99.90
29501;DHT22;16450;50.288;10.966;2023-02-11T18:33:32;2.10;99.90
29501;DHT22;16450;50.288;10.966;2023-02-11T18:36:34;2.10;99.90
29501;DHT22;16450;50.288;10.966;2023-02-11T18:39:36;2.10;99.90
29501;DHT22;16450;50.288;10.966;2023-02-11T18:42:38;2.10;99.90
29501;DHT22;16450;50.288;10.966;2023-02-11T18:45:43;2.10;99.90
29501;DHT22;16450;50.288;10.966;2023-02-11T18:48:45;2.10;99.90
29501;DHT22;16450;50.288;10.966;2023-02-11T18:51:47;2.10;99.90
29501;DHT22;16450;50.288;10.966;2023-02-11T18:54:50;2.10;99.90
29501;DHT22;16450;50.288;10.966;2023-02-11T18:57:52;2.10;99.90
29501;DHT22;16450;50.288;10.966;2023-02-11T19:00:54;2.00;99.90
29501;DHT22;16450;50.288;10.966;2023-02-11T19:03:58;2.10;99.90
29501;DHT22;16450;50.288;10.966;2023-02-11T19:07:00;2.10;99.90
29501;DHT22;16450;50.288;10.966;2023-02-11T19:10:04;2.10;99.90
29501;DHT22;16450;50.288;10.966;2023-02-11T19:13:07;2.10;99.90
29501;DHT22;16450;50.288;10.966;2023-02-11T19:16:09;2.10;99.90
29501;DHT22;16450;50.288;10.966;2023-02-11T19:19:12;2.10;99.90
29501;DHT22;16450;50.288;10.966;2023-02-11T19:22:14;2.10;99.90
29501;DHT22;16450;50.288;10.966;2023-02-11T19:25:17;2.10;99.90
29501;DHT22;16450;50.288;10.966;2023-02-11T19:28:19;2.10;99.90
29501;DHT22;16450;50.288;10.966;2023-02-11T19:31:21;2.10;99.90
29501;DHT22;16450;50.288;10.966;2023-02-11T19:34:23;2.10;99.90
29501;DHT22;16450;50.288;10.966;2023-02-11T19:37:25;2.10;99.90
29501;DHT22;16450;50.288;10.966;2023-02-11T19:40:27;2.10;99.90
29501;DHT22;16450;50.288;10.966;2023-02-11T19:43:29;2.10;99.90
29501;DHT22;16450;50.288;10.966;2023-02-11T19:46:34;2.10;99.90
29501;DHT22;16450;50.288;10.966;2023-02-11T19:49:36;2.10;99.90
29501;DHT22;16450;50.288;10.966;2023-02-11T19:52:38;2.10;99.90
29501;DHT22;16450;50.288;10.966;2023-02-11T19:55:41;2.10;99.90
29501;DHT22;16450;50.288;10.966;2023-02-11T19:58:43;2.10;99.90
29501;DHT22;16450;50.288;10.966;2023-02-11T20:01:45;2.10;99.90
29501;DHT22;16450;50.288;10.966;2023-02-11T20:04:49;2.10;99.90
29501;DHT22;16450;50.288;10.966;2023-02-11T20:07:51;2.10;99.90
29501;DHT22;16450;50.288;10.966;2023-02-11T20:10:52;2.10;99.90
29501;DHT22;16450;50.288;10.966;2023-02-11T20:13:55;2.10;99.90
29501;DHT22;16450;50.288;10.966;2023-02-11T20:16:57;2.10;99.90
29501;DHT22;16450;50.288;10.966;2023-02-11T20:19:59;2.10;99.90
29501;DHT22;16450;50.288;10.966;2023-02-11T20:23:01;2.00;99.90
29501;DHT22;16450;50.288;10.966;2023-02-11T20:26:32;1.90;99.90
29501;DHT22;16450;50.288;10.966;2023-02-11T20:29:33;2.10;99.90
29501;DHT22;16450;50.288;10.966;2023-02-11T20:32:35;2.00;99.90
29501;DHT22;16450;50.288;10.966;2023-02-11T20:35:38;2.00;99.90
29501;DHT22;16450;50.288;10.966;2023-02-11T20:38:40;2.00;99.90
29501;DHT22;16450;50.288;10.966;2023-02-11T20:41:42;2.00;99.90
29501;DHT22;16450;50.288;10.966;2023-02-11T20:44:46;2.00;99.90
29501;DHT22;16450;50.288;10.966;2023-02-11T20:47:48;2.00;99.90
29501;DHT22;16450;50.288;10.966;2023-02-11T20:50:50;2.10;99.90
29501;DHT22;16450;50.288;10.966;2023-02-11T20:53:52;2.10;99.90
29501;DHT22;16450;50.288;10.966;2023-02-11T20:56:54;2.10;99.90
29501;DHT22;16450;50.288;10.966;2023-02-11T20:59:58;2.10;99.90
29501;DHT22;16450;50.288;10.966;2023-02-11T21:03:00;2.10;99.90
29501;DHT22;16450;50.288;10.966;2023-02-11T21:06:02;2.10;99.90
29501;DHT22;16450;50.288;10.966;2023-02-11T21:09:05;2.10;99.90
29501;DHT22;16450;50.288;10.966;2023-02-11T21:12:08;2.10;99.90